createdAt,value
2018-04-18T00:05:24.155Z,4.14
2018-04-18T00:11:16.710Z,3.89
2018-04-18T00:17:05.515Z,4.1
2018-04-18T00:22:56.210Z,3.27
2018-04-18T00:28:46.887Z,3.61
2018-04-18T00:35:40.722Z,3.51
2018-04-18T00:40:28.261Z,3.36
2018-04-18T00:46:18.925Z,2.78
2018-04-18T00:52:09.633Z,3.46
2018-04-18T00:58:00.269Z,3.4
2018-04-18T01:03:50.976Z,3.37
2018-04-18T01:09:41.635Z,3.07
2018-04-18T01:15:32.361Z,2.96
2018-04-18T01:21:23.011Z,2.83
2018-04-18T01:27:13.708Z,2.76
2018-04-18T01:33:04.361Z,3.37
2018-04-18T01:38:55.074Z,4.67
2018-04-18T01:44:45.741Z,4.69
2018-04-18T01:50:36.391Z,3.67
2018-04-18T01:56:27.053Z,3.62
2018-04-18T02:02:17.724Z,3.86
2018-04-18T02:08:08.345Z,4.58
2018-04-18T02:13:59.161Z,4.64
2018-04-18T02:19:49.724Z,4.53
2018-04-18T02:25:40.380Z,4.17
2018-04-18T02:31:31.012Z,5.38
2018-04-18T02:37:21.761Z,4.54
2018-04-18T02:43:12.356Z,3.71
2018-04-18T02:49:03.037Z,4.6
2018-04-18T02:54:53.744Z,4.56
2018-04-18T03:00:44.406Z,4.21
2018-04-18T03:06:35.096Z,4.16
2018-04-18T03:12:25.756Z,4.35
2018-04-18T03:18:16.413Z,4.36
2018-04-18T03:24:07.074Z,3.98
2018-04-18T03:29:57.737Z,4.4
2018-04-18T03:35:48.478Z,4.08
2018-04-18T03:41:39.079Z,3.78
2018-04-18T03:47:29.799Z,3.41
2018-04-18T03:53:20.363Z,4.4
2018-04-18T03:59:11.002Z,4.18
2018-04-18T04:05:01.726Z,3.8
2018-04-18T04:10:52.438Z,3.8
2018-04-18T04:16:43.005Z,4.36
2018-04-18T04:22:33.655Z,3.61
2018-04-18T04:28:24.307Z,3.62
2018-04-18T04:34:14.970Z,3.57
2018-04-18T04:40:05.740Z,4.01
2018-04-18T04:45:56.257Z,3.44
2018-04-18T04:51:46.909Z,3.88
2018-04-18T04:57:37.577Z,3.9
2018-04-18T05:03:28.277Z,3.66
2018-04-18T05:09:18.871Z,3.91
2018-04-18T05:15:09.533Z,3.79
2018-04-18T05:21:00.178Z,4.35
2018-04-18T05:26:50.818Z,4.41
2018-04-18T05:32:41.502Z,4.4
2018-04-18T05:38:32.186Z,3.92
2018-04-18T05:44:22.789Z,4.72
2018-04-18T05:50:13.420Z,4.28
2018-04-18T05:56:04.086Z,3.53
2018-04-18T06:01:54.771Z,4.73
2018-04-18T06:07:45.409Z,4.85
2018-04-18T06:13:36.112Z,4.35
2018-04-18T06:19:26.755Z,4.79
2018-04-18T06:25:17.402Z,4.4
2018-04-18T06:31:08.098Z,4.24
2018-04-18T06:36:58.760Z,5.3
2018-04-18T06:42:49.438Z,6.26
2018-04-18T06:48:40.083Z,5.53
2018-04-18T06:54:30.792Z,4.71
2018-04-18T07:00:21.453Z,5.01
2018-04-18T07:06:12.182Z,6.28
2018-04-18T07:12:02.851Z,9.2
2018-04-18T07:17:53.467Z,23.13
2018-04-18T07:23:44.143Z,11.46
2018-04-18T07:29:34.882Z,5.59
2018-04-18T07:35:25.550Z,6.88
2018-04-18T07:41:16.240Z,4.15
2018-04-18T07:47:07.044Z,2.44
2018-04-18T07:52:57.734Z,2.77
2018-04-18T07:58:48.310Z,3.04
2018-04-18T08:04:39.104Z,2.62
2018-04-18T08:10:29.763Z,3.11
2018-04-18T08:16:20.431Z,2.49
2018-04-18T08:22:11.213Z,2.67
2018-04-18T08:28:01.882Z,3.01
2018-04-18T08:33:52.685Z,2.6
2018-04-18T08:39:43.310Z,3.2
2018-04-18T08:45:34.041Z,2.96
2018-04-18T08:51:24.747Z,2.72
2018-04-18T08:57:15.521Z,2.9
2018-04-18T09:03:06.189Z,2.62
2018-04-18T09:08:56.950Z,2.44
2018-04-18T09:14:47.672Z,3.24
2018-04-18T09:20:38.357Z,2.4
2018-04-18T09:26:29.107Z,2.55
2018-04-18T09:32:19.836Z,2.75
2018-04-18T09:38:10.545Z,3.33
2018-04-18T09:44:01.275Z,3.48
2018-04-18T09:49:51.974Z,2.69
2018-04-18T09:55:42.741Z,2.51
2018-04-18T10:01:33.453Z,2.78
2018-04-18T10:07:24.164Z,3.62
2018-04-18T10:13:14.932Z,2.6
2018-04-18T10:19:05.698Z,3.09
2018-04-18T10:24:56.394Z,2.77
2018-04-18T10:30:47.110Z,3.78
2018-04-18T10:36:37.884Z,3.35
2018-04-18T10:42:28.546Z,2.85
2018-04-18T10:48:19.318Z,2.75
2018-04-18T10:54:10.035Z,2.24
2018-04-18T11:00:00.773Z,2.5
2018-04-18T11:05:51.595Z,2.66
2018-04-18T11:11:42.278Z,2.3
2018-04-18T11:17:32.983Z,2.2
2018-04-18T11:23:23.725Z,2.42
2018-04-18T11:29:14.490Z,2.07
2018-04-18T11:35:05.230Z,2.99
2018-04-18T11:40:55.918Z,2.14
2018-04-18T11:46:46.708Z,2.54
2018-04-18T11:52:37.426Z,2.48
2018-04-18T11:58:28.190Z,2.2
2018-04-18T12:04:18.937Z,2.69
2018-04-18T12:10:09.690Z,2.83
2018-04-18T12:16:00.549Z,2.65
2018-04-18T12:21:51.324Z,3.12
2018-04-18T12:27:41.990Z,3.16
2018-04-18T12:33:32.759Z,2.47
2018-04-18T12:39:23.563Z,2.62
2018-04-18T12:45:14.288Z,2.75
2018-04-18T12:51:05.116Z,2.53
2018-04-18T12:56:55.895Z,2.46
2018-04-18T13:02:47.052Z,2.51
2018-04-18T13:08:37.549Z,2.37
2018-04-18T13:14:28.363Z,2.1
2018-04-18T13:20:19.186Z,2.08
2018-04-18T13:26:10.024Z,2.26
2018-04-18T13:32:00.873Z,2.58
2018-04-18T13:37:51.698Z,2.11
2018-04-18T13:43:42.505Z,3
2018-04-18T13:49:33.380Z,2.19
2018-04-18T13:55:24.190Z,1.87
2018-04-18T14:01:15.072Z,1.81
2018-04-18T14:07:05.851Z,2.26
2018-04-18T14:12:56.716Z,2.59
2018-04-18T14:18:47.505Z,2.07
2018-04-18T14:24:38.317Z,2.42
2018-04-18T14:30:29.134Z,2.95
2018-04-18T14:36:19.984Z,2.39
2018-04-18T14:42:10.768Z,2.67
2018-04-18T14:48:01.601Z,2.83
2018-04-18T14:53:52.479Z,3.03
2018-04-18T14:59:43.117Z,2.51
2018-04-18T15:05:33.927Z,3.2
2018-04-18T15:11:24.696Z,2.55
2018-04-18T15:17:15.447Z,4.03
2018-04-18T15:23:06.292Z,2.87
2018-04-18T15:28:57.007Z,3.16
2018-04-18T15:34:47.800Z,3.24
2018-04-18T15:40:38.525Z,3.11
2018-04-18T15:46:29.281Z,2.77
2018-04-18T15:52:20.055Z,2.81
2018-04-18T15:58:10.793Z,3.09
2018-04-18T16:04:01.530Z,3.09
2018-04-18T16:09:52.273Z,3.48
2018-04-18T16:15:43.045Z,2.87
2018-04-18T16:21:33.787Z,4.86
2018-04-18T16:27:24.585Z,3.25
2018-04-18T16:33:15.337Z,3.38
2018-04-18T16:39:06.063Z,3.4
2018-04-18T16:44:56.782Z,4.2
2018-04-18T16:50:47.564Z,4.28
2018-04-18T16:56:38.324Z,4.07
2018-04-18T17:02:29.047Z,4.95
2018-04-18T17:08:19.732Z,3.66
2018-04-18T17:14:10.504Z,2.82
2018-04-18T17:20:01.230Z,3.16
2018-04-18T17:25:51.977Z,2.81
2018-04-18T17:31:42.729Z,2.96
2018-04-18T17:37:33.463Z,2.86
2018-04-18T17:43:24.189Z,3.21
2018-04-18T17:49:14.940Z,3.31
2018-04-18T17:55:05.636Z,2.97
2018-04-18T18:00:56.406Z,3.48
2018-04-18T18:06:47.093Z,3.12
2018-04-18T18:12:37.862Z,3.38
2018-04-18T18:18:28.545Z,2.87
2018-04-18T18:24:19.315Z,3.15
2018-04-18T18:30:10.026Z,3.08
2018-04-18T18:36:00.719Z,2.71
2018-04-18T18:41:51.439Z,3.35
2018-04-18T18:47:42.172Z,3.15
2018-04-18T18:53:32.905Z,2.93
2018-04-18T18:59:23.609Z,3.1
2018-04-18T19:05:14.319Z,3.29
2018-04-18T19:11:05.026Z,2.49
2018-04-18T19:16:55.772Z,3.52
2018-04-18T19:22:46.465Z,3.22
2018-04-18T19:28:37.205Z,2.88
2018-04-18T19:34:27.913Z,2.93
2018-04-18T19:40:18.625Z,3.17
2018-04-18T19:46:09.343Z,3.41
2018-04-18T19:52:00.077Z,2.82
2018-04-18T19:57:50.794Z,3.02
2018-04-18T20:03:41.471Z,3.06
2018-04-18T20:09:32.181Z,2.91
2018-04-18T20:15:22.902Z,3
2018-04-18T20:21:13.568Z,2.57
2018-04-18T20:27:04.310Z,2.91
2018-04-18T20:32:55.041Z,2.53
2018-04-18T20:38:45.814Z,2.81
2018-04-18T20:44:36.432Z,3
2018-04-18T20:50:27.211Z,2.86
2018-04-18T20:56:17.837Z,2.92
2018-04-18T21:02:08.559Z,2.76
2018-04-18T21:07:59.274Z,2.79
2018-04-18T21:13:50.018Z,3.03
2018-04-18T21:19:40.679Z,2.86
2018-04-18T21:25:31.395Z,3.45
2018-04-18T21:31:22.104Z,2.75
2018-04-18T21:37:12.827Z,2.61
2018-04-18T21:43:03.524Z,2.89
2018-04-18T21:48:54.223Z,3.12
2018-04-18T21:54:44.992Z,2.97
2018-04-18T22:00:35.653Z,2.9
2018-04-18T22:06:26.305Z,2.92
2018-04-18T22:12:17.000Z,3.04
2018-04-18T22:16:38.815Z,4.07
2018-04-18T22:22:28.794Z,3.19
2018-04-18T22:28:18.820Z,3.17
2018-04-18T22:34:08.847Z,3.18
2018-04-18T22:39:59.041Z,2.88
2018-04-18T22:45:49.078Z,3.33
2018-04-18T22:57:29.276Z,3.32
2018-04-18T23:03:19.439Z,3.48
2018-04-18T23:09:09.466Z,3.12
2018-04-18T23:14:59.673Z,3.63
2018-04-18T23:26:39.806Z,3.2
2018-04-18T23:32:29.824Z,3.47
2018-04-18T23:38:19.994Z,3.23
2018-04-18T23:50:00.358Z,3.11
2018-04-18T23:55:50.220Z,3.91
